Time;durP1;ratioP1;P1;durP2;ratioP2;P2;SDS_P1;SDS_P2;PMS_P1;PMS_P2;Temp;Humidity;BMP_temperature;BMP_pressure;BME280_temperature;BME280_humidity;BME280_pressure;Samples;Min_cycle;Max_cycle;Signal;HPM_P1;HPM_P2
2023/12/06 00:01:37;;;;;;;10.45;5.40;;;;;;;;;;10456355;28;20246;-75
2023/12/06 00:06:37;;;;;;;13.93;4.85;;;;;;;;;;10463616;28;20016;-74
2023/12/06 00:11:38;;;;;;;11.55;5.80;;;;;;;;;;10463504;28;20031;-75
2023/12/06 00:16:39;;;;;;;8.93;5.10;;;;;;;;;;10461924;28;20307;-75
2023/12/06 00:21:39;;;;;;;12.15;5.18;;;;;;;;;;10464289;28;20028;-75
2023/12/06 00:26:42;;;;;;;9.30;5.23;;;;;;;;;;10463108;28;20288;-75
2023/12/06 00:31:42;;;;;;;10.45;4.90;;;;;;;;;;10463041;28;20256;-76
2023/12/06 00:36:42;;;;;;;12.07;5.25;;;;;;;;;;10462664;28;20210;-75
2023/12/06 00:41:42;;;;;;;9.77;4.95;;;;;;;;;;10442834;28;20199;-76
2023/12/06 00:46:43;;;;;;;11.60;4.95;;;;;;;;;;10439050;28;20334;-75
2023/12/06 00:51:43;;;;;;;11.48;5.88;;;;;;;;;;10463303;28;20016;-75
2023/12/06 00:56:43;;;;;;;8.88;4.70;;;;;;;;;;10461804;28;20062;-74
2023/12/06 01:01:43;;;;;;;9.43;4.95;;;;;;;;;;10461656;28;20055;-74
2023/12/06 01:06:44;;;;;;;10.27;4.90;;;;;;;;;;10461211;28;20243;-74
2023/12/06 01:11:44;;;;;;;10.65;5.32;;;;;;;;;;10461042;28;20029;-74
2023/12/06 01:16:44;;;;;;;10.65;4.72;;;;;;;;;;10461072;28;20086;-75
2023/12/06 01:21:44;;;;;;;7.93;4.97;;;;;;;;;;10460921;28;20029;-74
2023/12/06 01:26:44;;;;;;;7.95;4.03;;;;;;;;;;10460907;28;20020;-75
2023/12/06 01:31:45;;;;;;;8.35;4.13;;;;;;;;;;10460444;28;20013;-74
2023/12/06 01:36:45;;;;;;;6.55;3.83;;;;;;;;;;10460213;28;20021;-76
2023/12/06 01:41:46;;;;;;;8.18;4.47;;;;;;;;;;10460434;28;20027;-75
2023/12/06 01:46:46;;;;;;;6.25;3.50;;;;;;;;;;10459846;28;20036;-74
2023/12/06 01:51:46;;;;;;;8.52;3.58;;;;;;;;;;10459676;28;20083;-74
2023/12/06 01:56:47;;;;;;;6.30;3.47;;;;;;;;;;10456175;28;20009;-72
2023/12/06 02:01:47;;;;;;;5.85;3.25;;;;;;;;;;10458089;28;20223;-73
2023/12/06 02:06:47;;;;;;;5.18;3.50;;;;;;;;;;10457419;28;20067;-73
2023/12/06 02:11:49;;;;;;;8.32;3.90;;;;;;;;;;10457988;28;20236;-76
2023/12/06 02:16:49;;;;;;;6.28;3.08;;;;;;;;;;10457504;28;20051;-74
2023/12/06 02:21:50;;;;;;;7.63;3.72;;;;;;;;;;10472641;28;20013;-75
2023/12/06 02:26:52;;;;;;;9.18;4.07;;;;;;;;;;10450543;28;20031;-75
2023/12/06 02:31:53;;;;;;;7.13;3.95;;;;;;;;;;10458865;28;20035;-75
2023/12/06 02:36:58;;;;;;;6.60;3.17;;;;;;;;;;10456465;28;20081;-74
2023/12/06 02:41:58;;;;;;;6.07;3.42;;;;;;;;;;10454002;28;20080;-74
2023/12/06 02:46:59;;;;;;;9.18;4.28;;;;;;;;;;10456292;28;20227;-75
2023/12/06 02:51:59;;;;;;;7.70;4.10;;;;;;;;;;10474135;28;20036;-76
2023/12/06 02:56:59;;;;;;;8.60;4.95;;;;;;;;;;10453797;28;20206;-76
2023/12/06 03:02:00;;;;;;;7.68;4.18;;;;;;;;;;10450989;28;20032;-75
2023/12/06 03:07:00;;;;;;;10.52;5.22;;;;;;;;;;10456440;28;20337;-75
2023/12/06 03:12:00;;;;;;;6.75;3.83;;;;;;;;;;10431275;28;20089;-74
2023/12/06 03:17:00;;;;;;;7.70;3.85;;;;;;;;;;10419435;28;20170;-75
2023/12/06 03:22:01;;;;;;;6.35;3.65;;;;;;;;;;10421695;28;20013;-74
2023/12/06 03:27:01;;;;;;;9.00;3.87;;;;;;;;;;10420957;28;20025;-76
2023/12/06 03:32:01;;;;;;;5.82;3.40;;;;;;;;;;10421210;28;20294;-75
2023/12/06 03:37:03;;;;;;;7.55;3.50;;;;;;;;;;10433431;28;20028;-75
2023/12/06 03:42:03;;;;;;;6.38;3.53;;;;;;;;;;10428974;28;20119;-74
2023/12/06 03:47:04;;;;;;;5.47;3.75;;;;;;;;;;10426523;28;20013;-74
2023/12/06 03:52:04;;;;;;;4.67;3.20;;;;;;;;;;10426880;28;20177;-75
2023/12/06 03:57:04;;;;;;;5.70;3.22;;;;;;;;;;10425524;28;20091;-74
2023/12/06 04:02:05;;;;;;;8.77;3.40;;;;;;;;;;10429212;28;20055;-75
2023/12/06 04:07:05;;;;;;;7.03;3.60;;;;;;;;;;10448579;28;20028;-75
2023/12/06 04:12:05;;;;;;;4.80;3.25;;;;;;;;;;10463835;28;20021;-76
2023/12/06 04:17:07;;;;;;;7.03;3.45;;;;;;;;;;10463697;28;20072;-74
2023/12/06 04:22:07;;;;;;;6.15;3.25;;;;;;;;;;10463746;28;20230;-75
2023/12/06 04:27:07;;;;;;;5.88;3.55;;;;;;;;;;10463202;28;20024;-74
2023/12/06 04:32:08;;;;;;;6.47;3.38;;;;;;;;;;10463171;28;20040;-74
2023/12/06 04:37:08;;;;;;;8.63;3.42;;;;;;;;;;10463076;28;20027;-74
2023/12/06 04:42:08;;;;;;;6.75;3.72;;;;;;;;;;10463640;28;20088;-75
2023/12/06 04:47:08;;;;;;;8.07;4.32;;;;;;;;;;10462967;28;20036;-75
2023/12/06 04:52:09;;;;;;;8.87;3.80;;;;;;;;;;10461727;28;20029;-74
2023/12/06 04:57:09;;;;;;;7.70;4.47;;;;;;;;;;10463052;28;20235;-74
2023/12/06 05:02:09;;;;;;;5.53;3.40;;;;;;;;;;10458254;28;20051;-75
2023/12/06 05:07:09;;;;;;;6.55;3.80;;;;;;;;;;10446542;28;20037;-73
2023/12/06 05:12:11;;;;;;;8.18;3.67;;;;;;;;;;10421787;28;20242;-74
2023/12/06 05:17:11;;;;;;;8.13;4.03;;;;;;;;;;10441731;28;20060;-74
2023/12/06 05:22:11;;;;;;;8.48;3.88;;;;;;;;;;10452043;28;20021;-73
2023/12/06 05:27:11;;;;;;;8.27;4.22;;;;;;;;;;10435388;28;20028;-72
2023/12/06 05:32:12;;;;;;;11.55;4.80;;;;;;;;;;10459980;28;20084;-73
2023/12/06 05:37:12;;;;;;;8.32;4.95;;;;;;;;;;10457502;28;20025;-73
2023/12/06 05:42:12;;;;;;;8.52;4.32;;;;;;;;;;10457956;28;20079;-74
2023/12/06 05:47:13;;;;;;;7.57;4.00;;;;;;;;;;10454635;28;20012;-71
2023/12/06 05:52:13;;;;;;;8.52;4.18;;;;;;;;;;10475304;28;20024;-72
2023/12/06 05:57:13;;;;;;;7.07;3.83;;;;;;;;;;10458904;28;20032;-71
2023/12/06 06:02:13;;;;;;;6.57;3.72;;;;;;;;;;10458974;28;20024;-73
2023/12/06 06:07:14;;;;;;;8.38;4.85;;;;;;;;;;10469804;28;20257;-74
2023/12/06 06:12:14;;;;;;;8.52;4.63;;;;;;;;;;10441623;28;20262;-73
2023/12/06 06:17:14;;;;;;;8.40;4.72;;;;;;;;;;10458439;28;20091;-73
2023/12/06 06:22:14;;;;;;;9.37;4.83;;;;;;;;;;10456762;28;20033;-73
2023/12/06 06:27:15;;;;;;;10.10;5.15;;;;;;;;;;10470045;28;20064;-73
2023/12/06 06:32:15;;;;;;;10.77;6.00;;;;;;;;;;10436074;28;20303;-72
2023/12/06 06:37:15;;;;;;;11.20;5.30;;;;;;;;;;10444083;28;20029;-73
2023/12/06 06:42:16;;;;;;;9.27;5.20;;;;;;;;;;10472853;28;20063;-72
2023/12/06 06:47:16;;;;;;;13.73;5.85;;;;;;;;;;10457483;28;20023;-72
2023/12/06 06:52:17;;;;;;;10.60;5.50;;;;;;;;;;10457679;28;20214;-72
2023/12/06 06:57:17;;;;;;;9.80;5.57;;;;;;;;;;10457286;28;20091;-72
2023/12/06 07:02:17;;;;;;;15.95;6.93;;;;;;;;;;10457357;28;20325;-73
2023/12/06 07:07:19;;;;;;;15.67;6.97;;;;;;;;;;10456932;28;20025;-72
2023/12/06 07:12:20;;;;;;;10.43;5.90;;;;;;;;;;10458408;28;20341;-73
2023/12/06 07:17:20;;;;;;;10.85;5.88;;;;;;;;;;10480915;28;20044;-72
2023/12/06 07:22:21;;;;;;;10.75;7.15;;;;;;;;;;10465426;28;20017;-73
2023/12/06 07:27:22;;;;;;;16.63;7.07;;;;;;;;;;10480544;28;20065;-72
2023/12/06 07:32:22;;;;;;;9.43;5.82;;;;;;;;;;10464420;28;20192;-72
2023/12/06 07:37:22;;;;;;;13.60;7.18;;;;;;;;;;10464990;28;20021;-73
2023/12/06 07:42:22;;;;;;;16.25;7.97;;;;;;;;;;10479516;28;20338;-73
2023/12/06 07:47:22;;;;;;;14.05;7.57;;;;;;;;;;10464704;28;20264;-72
2023/12/06 07:52:23;;;;;;;16.67;7.63;;;;;;;;;;10463943;28;20224;-73
2023/12/06 07:57:27;;;;;;;11.00;6.40;;;;;;;;;;10464239;28;20036;-73
2023/12/06 08:02:27;;;;;;;17.77;7.20;;;;;;;;;;10469649;28;20025;-73
2023/12/06 08:07:27;;;;;;;18.27;7.03;;;;;;;;;;10464173;28;20214;-71
2023/12/06 08:12:27;;;;;;;14.65;6.50;;;;;;;;;;10463438;28;20279;-72
2023/12/06 08:17:28;;;;;;;17.08;8.20;;;;;;;;;;10463989;28;20041;-72
2023/12/06 08:22:28;;;;;;;12.93;6.80;;;;;;;;;;10463260;28;20016;-72
2023/12/06 08:27:29;;;;;;;13.85;6.47;;;;;;;;;;10461842;28;20024;-73
2023/12/06 08:32:30;;;;;;;13.48;5.93;;;;;;;;;;10462907;28;20319;-72
2023/12/06 08:37:30;;;;;;;16.45;7.22;;;;;;;;;;10462866;28;20274;-71
2023/12/06 08:42:31;;;;;;;12.00;6.57;;;;;;;;;;10463707;28;20091;-71
2023/12/06 08:47:32;;;;;;;19.73;8.18;;;;;;;;;;10461970;28;20315;-72
2023/12/06 08:52:32;;;;;;;14.55;7.63;;;;;;;;;;10462039;28;20290;-72
2023/12/06 08:57:32;;;;;;;16.83;9.43;;;;;;;;;;10462157;28;20099;-72
2023/12/06 09:02:35;;;;;;;14.85;8.63;;;;;;;;;;10462045;28;20036;-71
2023/12/06 09:07:36;;;;;;;12.85;6.55;;;;;;;;;;10462484;28;20017;-72
2023/12/06 09:12:36;;;;;;;17.95;7.07;;;;;;;;;;10461448;28;20345;-73
2023/12/06 09:17:36;;;;;;;13.60;6.63;;;;;;;;;;10460959;28;20025;-72
2023/12/06 09:22:36;;;;;;;17.65;7.70;;;;;;;;;;10460694;28;20352;-71
2023/12/06 09:27:37;;;;;;;17.65;8.68;;;;;;;;;;10456386;28;20082;-73
2023/12/06 09:32:37;;;;;;;13.43;7.25;;;;;;;;;;10437886;28;20082;-72
2023/12/06 09:37:37;;;;;;;16.50;8.40;;;;;;;;;;10455402;28;20032;-72
2023/12/06 09:42:41;;;;;;;11.18;6.50;;;;;;;;;;10454442;28;20029;-73
2023/12/06 09:47:42;;;;;;;11.32;7.13;;;;;;;;;;10427495;28;20040;-74
2023/12/06 09:52:43;;;;;;;7.57;4.55;;;;;;;;;;10454662;28;20013;-73
2023/12/06 09:57:43;;;;;;;9.60;3.93;;;;;;;;;;10454786;28;20315;-72
2023/12/06 10:02:48;;;;;;;11.40;5.97;;;;;;;;;;10454386;28;20029;-73
2023/12/06 10:07:48;;;;;;;13.32;6.07;;;;;;;;;;10453724;28;20033;-73
2023/12/06 10:12:52;;;;;;;10.27;5.20;;;;;;;;;;10454840;28;20036;-72
2023/12/06 10:17:52;;;;;;;11.40;5.95;;;;;;;;;;10453918;28;20279;-72
2023/12/06 10:22:53;;;;;;;9.05;5.10;;;;;;;;;;10452968;28;20310;-72
2023/12/06 10:28:00;;;;;;;13.40;6.45;;;;;;;;;;10454220;28;20131;-72
2023/12/06 10:33:02;;;;;;;9.83;4.73;;;;;;;;;;10453786;28;20095;-73
2023/12/06 10:38:02;;;;;;;9.70;4.88;;;;;;;;;;10453630;28;20397;-73
2023/12/06 10:43:06;;;;;;;8.07;4.43;;;;;;;;;;10452431;28;20227;-73
2023/12/06 10:48:08;;;;;;;6.57;3.78;;;;;;;;;;10423289;28;20291;-73
2023/12/06 10:53:08;;;;;;;6.68;4.05;;;;;;;;;;10453889;28;20333;-73
2023/12/06 10:58:09;;;;;;;7.15;4.30;;;;;;;;;;10453858;28;20032;-73
2023/12/06 11:03:12;;;;;;;7.32;4.68;;;;;;;;;;10453132;28;20036;-72
2023/12/06 11:08:24;;;;;;;7.18;4.80;;;;;;;;;;10452607;28;20289;-72
2023/12/06 11:13:34;;;;;;;8.25;4.25;;;;;;;;;;10452348;28;20049;-73
2023/12/06 11:18:52;;;;;;;12.23;5.20;;;;;;;;;;10452295;28;20111;-72
2023/12/06 11:23:54;;;;;;;;;;;;;;;;;;10452656;28;20025;-74
2023/12/06 11:28:56;;;;;;;11.70;4.40;;;;;;;;;;10452626;28;20161;-72
2023/12/06 11:33:56;;;;;;;8.23;3.97;;;;;;;;;;10452320;28;20025;-73
2023/12/06 11:38:56;;;;;;;10.35;3.65;;;;;;;;;;10467169;28;20063;-72
2023/12/06 11:43:56;;;;;;;10.77;4.03;;;;;;;;;;10452768;28;20314;-72
2023/12/06 11:48:57;;;;;;;8.32;4.00;;;;;;;;;;10451325;28;20021;-72
2023/12/06 11:53:57;;;;;;;6.22;3.75;;;;;;;;;;10451383;28;20028;-72
2023/12/06 11:58:58;;;;;;;6.25;2.75;;;;;;;;;;10470072;28;20088;-72
2023/12/06 12:03:58;;;;;;;19.30;5.10;;;;;;;;;;10459212;28;20088;-73
2023/12/06 12:08:59;;;;;;;9.80;3.42;;;;;;;;;;10474548;28;20029;-74
2023/12/06 12:14:00;;;;;;;6.43;3.97;;;;;;;;;;10458810;28;20045;-72
2023/12/06 12:19:03;;;;;;;5.40;3.50;;;;;;;;;;10458689;28;20437;-73
2023/12/06 12:24:03;;;;;;;4.95;3.15;;;;;;;;;;10458746;28;20025;-72
2023/12/06 12:29:04;;;;;;;6.80;4.10;;;;;;;;;;10458168;28;20055;-73
2023/12/06 12:34:04;;;;;;;6.77;3.53;;;;;;;;;;10460908;28;20082;-74
2023/12/06 12:39:04;;;;;;;6.17;3.70;;;;;;;;;;10491284;28;20263;-73
2023/12/06 12:44:05;;;;;;;8.97;4.03;;;;;;;;;;10463235;28;20080;-73
2023/12/06 12:49:05;;;;;;;12.63;4.30;;;;;;;;;;10478021;28;20523;-73
2023/12/06 12:54:06;;;;;;;4.72;3.28;;;;;;;;;;10462399;28;20012;-73
2023/12/06 12:59:06;;;;;;;10.85;4.18;;;;;;;;;;10462140;28;20021;-72
2023/12/06 13:04:07;;;;;;;3.83;3.13;;;;;;;;;;10461835;28;20303;-72
2023/12/06 13:09:07;;;;;;;7.95;4.53;;;;;;;;;;10461805;28;20308;-73
2023/12/06 13:14:07;;;;;;;5.63;3.67;;;;;;;;;;10461178;28;20340;-73
2023/12/06 13:19:08;;;;;;;10.93;3.45;;;;;;;;;;10460773;28;20096;-74
2023/12/06 13:24:08;;;;;;;6.03;3.03;;;;;;;;;;10460487;28;20044;-73
2023/12/06 13:29:08;;;;;;;5.77;3.27;;;;;;;;;;10461333;28;20025;-73
2023/12/06 13:34:08;;;;;;;9.05;3.17;;;;;;;;;;10460114;28;20083;-73
2023/12/06 13:39:11;;;;;;;5.35;3.25;;;;;;;;;;10460191;28;20561;-73
2023/12/06 13:44:11;;;;;;;7.13;2.75;;;;;;;;;;10460575;28;20013;-72
2023/12/06 13:49:12;;;;;;;6.43;3.08;;;;;;;;;;10491222;28;20039;-72
2023/12/06 13:54:13;;;;;;;5.88;3.00;;;;;;;;;;10459997;28;20299;-72
2023/12/06 13:59:14;;;;;;;5.85;3.15;;;;;;;;;;10459665;28;20257;-73
2023/12/06 14:04:16;;;;;;;5.13;3.33;;;;;;;;;;10460171;28;20040;-74
2023/12/06 14:09:16;;;;;;;9.98;2.78;;;;;;;;;;10459122;28;20033;-74
2023/12/06 14:14:16;;;;;;;8.43;3.47;;;;;;;;;;10474532;28;20044;-74
2023/12/06 14:19:16;;;;;;;9.27;3.35;;;;;;;;;;10440055;28;20032;-83
2023/12/06 14:24:17;;;;;;;6.80;3.10;;;;;;;;;;10481226;28;20063;-83
2023/12/06 14:29:18;;;;;;;8.13;3.10;;;;;;;;;;10458513;28;20041;-83
2023/12/06 14:34:18;;;;;;;6.82;2.90;;;;;;;;;;10456998;28;20138;-77
2023/12/06 14:39:19;;;;;;;6.65;3.33;;;;;;;;;;10427212;28;21772;-78
2023/12/06 14:44:19;;;;;;;6.88;2.88;;;;;;;;;;10440029;28;20338;-86
2023/12/06 14:49:19;;;;;;;8.43;2.83;;;;;;;;;;10449426;28;20569;-76
2023/12/06 14:54:20;;;;;;;7.38;2.92;;;;;;;;;;10450751;28;20025;-76
2023/12/06 14:59:20;;;;;;;4.88;2.90;;;;;;;;;;10437064;28;20027;-78
2023/12/06 15:04:21;;;;;;;8.02;2.83;;;;;;;;;;10439597;28;20065;-77
2023/12/06 15:09:21;;;;;;;3.33;2.28;;;;;;;;;;10437121;28;20028;-71
2023/12/06 15:14:21;;;;;;;5.60;2.97;;;;;;;;;;10434500;28;20042;-75
2023/12/06 15:19:21;;;;;;;4.70;2.90;;;;;;;;;;10438822;28;20048;-77
2023/12/06 15:24:22;;;;;;;6.50;2.92;;;;;;;;;;10436519;28;20029;-75
2023/12/06 15:29:22;;;;;;;6.38;3.33;;;;;;;;;;10437039;28;20060;-76
2023/12/06 15:34:22;;;;;;;5.07;3.08;;;;;;;;;;10434722;28;20029;-76
2023/12/06 15:39:22;;;;;;;10.02;3.67;;;;;;;;;;10446277;28;20082;-78
2023/12/06 15:44:23;;;;;;;5.15;3.65;;;;;;;;;;10443563;28;20081;-75
2023/12/06 15:49:27;;;;;;;4.35;2.83;;;;;;;;;;10443242;28;20033;-76
2023/12/06 15:54:28;;;;;;;5.55;3.08;;;;;;;;;;10442474;28;20029;-74
2023/12/06 15:59:28;;;;;;;7.10;3.67;;;;;;;;;;10439734;28;20230;-74
2023/12/06 16:04:28;;;;;;;5.27;3.70;;;;;;;;;;10443802;28;20074;-75
2023/12/06 16:09:29;;;;;;;7.00;3.13;;;;;;;;;;10442456;28;20024;-75
2023/12/06 16:14:29;;;;;;;9.77;4.15;;;;;;;;;;10442308;28;20041;-75
2023/12/06 16:19:29;;;;;;;5.45;3.67;;;;;;;;;;10457392;28;20031;-76
2023/12/06 16:24:29;;;;;;;11.98;5.25;;;;;;;;;;10441617;28;20017;-75
2023/12/06 16:29:29;;;;;;;10.32;4.28;;;;;;;;;;10452239;28;20295;-77
2023/12/06 16:34:30;;;;;;;7.25;4.68;;;;;;;;;;10436294;28;20158;-76
2023/12/06 16:39:31;;;;;;;13.63;5.32;;;;;;;;;;10441168;28;20307;-78
2023/12/06 16:44:31;;;;;;;8.35;4.65;;;;;;;;;;10441981;28;20219;-78
2023/12/06 16:49:37;;;;;;;15.02;6.47;;;;;;;;;;10440337;28;20122;-78
2023/12/06 16:54:37;;;;;;;15.02;7.65;;;;;;;;;;10443692;28;20323;-77
2023/12/06 16:59:39;;;;;;;10.73;5.40;;;;;;;;;;10437218;28;20025;-77
2023/12/06 17:04:39;;;;;;;11.68;6.07;;;;;;;;;;10438555;28;20029;-78
2023/12/06 17:09:40;;;;;;;13.90;6.55;;;;;;;;;;10440521;28;20067;-79
2023/12/06 17:14:40;;;;;;;17.55;6.88;;;;;;;;;;10452606;28;20037;-78
2023/12/06 17:19:40;;;;;;;9.52;5.28;;;;;;;;;;10434587;28;20029;-79
2023/12/06 17:24:40;;;;;;;11.80;5.72;;;;;;;;;;10440485;28;20217;-79
2023/12/06 17:29:41;;;;;;;11.82;5.80;;;;;;;;;;10456524;28;20108;-77
2023/12/06 17:34:41;;;;;;;10.03;5.57;;;;;;;;;;10447645;28;20300;-78
2023/12/06 17:39:41;;;;;;;10.82;5.32;;;;;;;;;;10438995;28;20048;-77
2023/12/06 17:44:45;;;;;;;12.10;6.80;;;;;;;;;;10449872;28;20200;-78
2023/12/06 17:49:46;;;;;;;8.77;5.15;;;;;;;;;;10450725;28;20530;-77
2023/12/06 17:54:46;;;;;;;11.57;5.63;;;;;;;;;;10441373;28;20211;-77
2023/12/06 17:59:46;;;;;;;9.68;6.00;;;;;;;;;;10437758;28;20025;-78
2023/12/06 18:04:47;;;;;;;13.95;6.18;;;;;;;;;;10447880;28;20027;-78
2023/12/06 18:09:48;;;;;;;17.88;6.18;;;;;;;;;;10443917;28;20088;-78
2023/12/06 18:14:48;;;;;;;11.77;5.68;;;;;;;;;;10439658;28;20041;-80
2023/12/06 18:19:49;;;;;;;8.82;4.95;;;;;;;;;;10441925;28;20027;-77
2023/12/06 18:24:49;;;;;;;9.80;5.78;;;;;;;;;;10446399;28;20037;-79
2023/12/06 18:29:50;;;;;;;13.68;6.45;;;;;;;;;;10438438;28;20031;-78
2023/12/06 18:34:51;;;;;;;11.55;5.63;;;;;;;;;;10459674;28;20024;-78
2023/12/06 18:39:51;;;;;;;10.93;5.60;;;;;;;;;;10458578;28;20021;-78
2023/12/06 18:44:51;;;;;;;12.32;5.30;;;;;;;;;;10459555;28;20045;-78
2023/12/06 18:49:52;;;;;;;8.30;5.25;;;;;;;;;;10474449;28;20337;-78
2023/12/06 18:54:52;;;;;;;11.73;6.00;;;;;;;;;;10457561;28;20307;-78
2023/12/06 18:59:52;;;;;;;12.23;5.90;;;;;;;;;;10474739;28;20021;-78
2023/12/06 19:04:53;;;;;;;9.73;5.35;;;;;;;;;;10458548;28;20024;-78
2023/12/06 19:09:53;;;;;;;17.42;6.85;;;;;;;;;;10457498;28;20017;-78
2023/12/06 19:14:53;;;;;;;18.13;7.05;;;;;;;;;;10457951;28;20047;-78
2023/12/06 19:19:53;;;;;;;14.45;7.50;;;;;;;;;;10458281;28;20340;-77
2023/12/06 19:24:53;;;;;;;20.63;7.90;;;;;;;;;;10464016;28;20271;-78
2023/12/06 19:29:54;;;;;;;14.43;7.18;;;;;;;;;;10423458;28;20025;-77
2023/12/06 19:34:54;;;;;;;14.43;6.38;;;;;;;;;;10473419;28;20021;-76
2023/12/06 19:39:54;;;;;;;12.98;6.93;;;;;;;;;;10453562;28;20025;-78
2023/12/06 19:44:55;;;;;;;16.67;7.20;;;;;;;;;;10440630;28;20067;-80
2023/12/06 19:49:55;;;;;;;14.85;7.93;;;;;;;;;;10436597;28;20333;-81
2023/12/06 19:54:55;;;;;;;13.00;7.07;;;;;;;;;;10456798;28;20071;-79
2023/12/06 19:59:56;;;;;;;18.38;8.13;;;;;;;;;;10438195;28;20048;-80
2023/12/06 20:04:56;;;;;;;15.73;8.18;;;;;;;;;;10424949;28;20025;-80
2023/12/06 20:09:56;;;;;;;15.95;7.50;;;;;;;;;;10439662;28;20036;-77
2023/12/06 20:14:57;;;;;;;20.77;8.85;;;;;;;;;;10440320;28;20033;-87
2023/12/06 20:19:58;;;;;;;19.43;9.13;;;;;;;;;;10446995;28;20200;-80
2023/12/06 20:24:58;;;;;;;21.33;9.77;;;;;;;;;;10440348;28;20070;-78
2023/12/06 20:29:58;;;;;;;20.55;10.32;;;;;;;;;;10437470;28;20079;-81
2023/12/06 20:34:58;;;;;;;21.90;9.82;;;;;;;;;;10429594;28;20217;-79
2023/12/06 20:39:59;;;;;;;22.00;10.80;;;;;;;;;;10434416;28;20028;-80
2023/12/06 20:44:59;;;;;;;26.73;12.13;;;;;;;;;;10437471;28;20824;-79
2023/12/06 20:50:01;;;;;;;23.83;12.60;;;;;;;;;;10432511;28;20029;-88
2023/12/06 20:55:02;;;;;;;26.10;12.98;;;;;;;;;;10455615;28;20079;-79
2023/12/06 21:00:02;;;;;;;27.77;12.50;;;;;;;;;;10435410;28;20357;-82
2023/12/06 21:05:03;;;;;;;23.95;12.65;;;;;;;;;;10436498;28;20440;-81
2023/12/06 21:10:04;;;;;;;24.08;14.25;;;;;;;;;;10434675;28;20096;-77
2023/12/06 21:15:05;;;;;;;25.13;11.77;;;;;;;;;;10440347;28;20036;-79
2023/12/06 21:20:05;;;;;;;25.17;12.27;;;;;;;;;;10441100;28;20017;-83
2023/12/06 21:25:06;;;;;;;25.17;11.95;;;;;;;;;;10435491;28;20036;-78
2023/12/06 21:30:06;;;;;;;24.65;12.50;;;;;;;;;;10434797;28;20095;-74
2023/12/06 21:35:06;;;;;;;23.98;11.68;;;;;;;;;;10447272;28;20112;-77
2023/12/06 21:40:07;;;;;;;26.33;11.57;;;;;;;;;;10447905;28;20029;-77
2023/12/06 21:45:07;;;;;;;22.70;12.10;;;;;;;;;;10435487;28;20825;-77
2023/12/06 21:50:08;;;;;;;26.02;13.25;;;;;;;;;;10431048;28;20288;-77
2023/12/06 21:55:08;;;;;;;21.70;11.73;;;;;;;;;;10449596;28;20017;-77
2023/12/06 22:00:08;;;;;;;30.30;15.93;;;;;;;;;;10446034;28;20032;-77
2023/12/06 22:05:09;;;;;;;28.83;14.10;;;;;;;;;;10460530;28;20501;-80
2023/12/06 22:10:09;;;;;;;29.65;15.70;;;;;;;;;;10478754;28;20056;-80
2023/12/06 22:15:09;;;;;;;32.93;18.07;;;;;;;;;;10448079;28;20269;-79
2023/12/06 22:20:10;;;;;;;30.40;15.65;;;;;;;;;;10459536;28;20028;-80
2023/12/06 22:25:10;;;;;;;28.23;15.57;;;;;;;;;;10459397;28;20036;-80
2023/12/06 22:30:10;;;;;;;32.80;16.85;;;;;;;;;;10458941;28;20324;-80
2023/12/06 22:35:10;;;;;;;31.35;16.63;;;;;;;;;;10459219;28;20029;-80
2023/12/06 22:40:11;;;;;;;38.15;16.75;;;;;;;;;;10459019;28;20040;-81
2023/12/06 22:45:11;;;;;;;33.77;16.03;;;;;;;;;;10473384;28;20044;-80
2023/12/06 22:50:12;;;;;;;39.72;17.52;;;;;;;;;;10458571;28;20271;-79
2023/12/06 22:55:13;;;;;;;35.13;17.05;;;;;;;;;;10457461;28;20100;-80
2023/12/06 23:00:13;;;;;;;32.95;18.45;;;;;;;;;;10458639;28;20047;-80
2023/12/06 23:05:15;;;;;;;36.73;17.03;;;;;;;;;;10473861;28;20027;-80
2023/12/06 23:10:15;;;;;;;38.15;18.75;;;;;;;;;;10457995;28;20520;-81
2023/12/06 23:15:16;;;;;;;37.38;17.42;;;;;;;;;;10474003;28;20037;-81
2023/12/06 23:20:19;;;;;;;35.72;18.73;;;;;;;;;;10458103;28;20341;-81
2023/12/06 23:25:19;;;;;;;39.20;19.85;;;;;;;;;;10457812;28;20017;-79
2023/12/06 23:30:20;;;;;;;38.47;18.33;;;;;;;;;;10457755;28;20029;-80
2023/12/06 23:35:21;;;;;;;40.42;18.50;;;;;;;;;;10457966;28;20088;-80
2023/12/06 23:40:21;;;;;;;36.70;18.92;;;;;;;;;;10457703;28;20020;-80
2023/12/06 23:45:21;;;;;;;40.50;19.88;;;;;;;;;;10473314;28;20323;-80
2023/12/06 23:50:21;;;;;;;40.42;19.27;;;;;;;;;;10472750;28;20021;-80
2023/12/06 23:55:21;;;;;;;36.83;18.17;;;;;;;;;;10460031;28;20029;-80
